Home   Weather   USA   Paradise   Past weeks
Flag for USA

Past Weather in Paradise, California, USA — Yesterday and Last 2 Weeks

Currently: 93 °F. Passing clouds. (Weather station: Chico Municipal, USA). See more current weather

Past Weather in Paradise — Graph

°F

Paradise Temperature Yesterday

Maximum temperature yesterday: 90 °F (at 3:47 pm)
Minimum temperature yesterday: 64 °F (at 5:35 am)
Average temperature yesterday: 72 °F

High & Low Weather Summary for the Past Weeks

 TemperatureHumidityPressure
High102 °F (Aug 4, 3:47 pm)78% (Aug 2, 1:55 am)30.07 "Hg (Aug 2, 1:55 am)
Low64 °F (Aug 8, 6:47 am)9% (Aug 11, 5:47 pm)29.71 "Hg (Aug 4, 3:47 pm)
Average79 °F44%29.91 "Hg
* Reported Jul 27 5:47 pm — Aug 11 5:47 pm, Paradise. Weather by CustomWeather, © 2022

Note: Actual official high and low records may vary slightly from our data, if they occured in-between our weather recording intervals... More about our weather records

Paradise Weather History for the Previous 24 Hours

Scroll right to see more
 ConditionsComfort  
Time TempWeatherWind HumidityBarometerVisibility
5:47 pm
Thu, Aug 11
95 °FPassing clouds.14 mph9%29.92 "Hg40 mi
2:47 pm91 °FPassing clouds.7 mph20%29.99 "Hg40 mi
1:47 pm90 °FPassing clouds.8 mph20%30.01 "Hg40 mi
12:47 pm86 °FPassing clouds.No wind24%30.02 "Hg40 mi
11:47 am82 °FPassing clouds.7 mph32%30.04 "Hg25 mi
10:47 am79 °FSunny.No wind34%30.04 "Hg40 mi
9:47 am75 °FSunny.No wind39%30.05 "Hg40 mi
8:47 am72 °FSunny.6 mph44%30.05 "Hg40 mi
8:15 am68 °FSunny.No wind53%30.05 "Hg10 mi
7:55 am68 °FSunny.No wind49%30.04 "Hg10 mi
7:35 am68 °FSunny.No wind46%30.04 "Hg10 mi
6:15 am66 °FSunny.No wind46%30.03 "Hg10 mi
5:55 am66 °FClear.No wind49%30.03 "Hg10 mi
5:35 am66 °FClear.No wind52%30.02 "Hg10 mi
5:15 am66 °FClear.No wind46%30.03 "Hg10 mi
4:55 am66 °FClear.No wind46%30.02 "Hg10 mi
4:15 am64 °FClear.3 mph43%30.02 "Hg10 mi
3:55 am68 °FClear.3 mph38%30.02 "Hg10 mi
3:35 am66 °FClear.3 mph43%30.01 "Hg10 mi
3:15 am66 °FClear.No wind37%30.01 "Hg10 mi
2:55 am68 °FClear.No wind35%30.01 "Hg10 mi
2:35 am68 °FClear.No wind33%30.01 "Hg10 mi
2:15 am72 °FClear.No wind31%30.01 "Hg10 mi
1:55 am72 °FClear.No wind31%30.01 "Hg10 mi
1:35 am73 °FClear.No wind29%30.01 "Hg10 mi
12:55 am75 °FClear.7 mph29%30.01 "Hg10 mi
12:35 am75 °FClear.7 mph25%30.02 "Hg10 mi
12:15 am77 °FClear.7 mph26%30.02 "Hg10 mi
11:55 pm
Wed, Aug 10
77 °FClear.8 mph24%30.01 "Hg10 mi
11:15 pm77 °FClear.No wind24%30.01 "Hg10 mi
10:55 pm77 °FClear.5 mph24%30.00 "Hg10 mi
10:15 pm81 °FClear.6 mph21%30.00 "Hg10 mi
Weather by CustomWeather, © 2022

See weather overview